Time;durP1;ratioP1;P1;durP2;ratioP2;P2;SDS_P1;SDS_P2;PMS_P1;PMS_P2;Temp;Humidity;BMP_temperature;BMP_pressure;BME280_temperature;BME280_humidity;BME280_pressure;Samples;Min_cycle;Max_cycle;Signal;HPM_P1;HPM_P2
2021/09/06 00:02:21;;;;;;;4.18;2.80;;;;;;;24.02;39.40;94960.75;5013917;28;99291;-49
2021/09/06 00:04:46;;;;;;;5.45;3.05;;;;;;;24.01;39.03;94959.19;5013502;28;99737;-55
2021/09/06 00:07:12;;;;;;;3.50;3.13;;;;;;;24.01;39.19;94959.19;5014536;28;96834;-53
2021/09/06 00:09:37;;;;;;;3.45;3.08;;;;;;;23.99;38.97;94967.88;5017686;28;96967;-49
2021/09/06 00:12:03;;;;;;;5.10;3.55;;;;;;;24.03;39.04;94962.31;5016718;28;99342;-53
2021/09/06 00:14:28;;;;;;;3.90;3.40;;;;;;;24.01;38.34;94964.69;4999360;28;99372;-51
2021/09/06 00:16:54;;;;;;;3.90;3.45;;;;;;;24.00;38.88;94963.94;5017461;28;96621;-56
2021/09/06 00:19:21;;;;;;;3.72;3.28;;;;;;;24.00;38.88;94958.41;5017816;28;96817;-50
2021/09/06 00:21:46;;;;;;;4.03;3.63;;;;;;;23.96;38.82;94958.41;5016944;28;99505;-51
2021/09/06 00:24:12;;;;;;;5.15;3.90;;;;;;;23.92;38.89;94963.19;5017112;28;99267;-48
2021/09/06 00:26:38;;;;;;;3.67;3.38;;;;;;;23.90;39.03;94965.59;5017479;28;96798;-48
2021/09/06 00:29:04;;;;;;;5.45;3.90;;;;;;;23.91;38.94;94961.63;5017802;28;97505;-49
2021/09/06 00:31:29;;;;;;;4.13;3.70;;;;;;;23.92;39.03;94974.22;5017006;28;99220;-49
2021/09/06 00:33:55;;;;;;;4.32;3.83;;;;;;;23.91;38.92;94966.38;5016871;28;99011;-48
2021/09/06 00:36:20;;;;;;;5.03;3.42;;;;;;;23.87;39.08;94976.66;5016756;28;96765;-48
2021/09/06 00:38:45;;;;;;;4.20;3.55;;;;;;;23.87;38.69;94984.94;5017585;28;96866;-52
2021/09/06 00:41:11;;;;;;;5.70;3.40;;;;;;;23.87;38.95;94988.47;5017122;28;101031;-50
2021/09/06 00:43:38;;;;;;;4.78;3.88;;;;;;;23.82;38.87;94991.72;5016966;28;99757;-51
2021/09/06 00:46:03;;;;;;;4.75;4.10;;;;;;;23.87;39.19;94999.50;5017127;28;96810;-49
2021/09/06 00:48:30;;;;;;;6.28;4.45;;;;;;;23.89;38.96;94996.34;5017079;28;96946;-49
2021/09/06 00:50:56;;;;;;;5.40;4.40;;;;;;;23.86;38.75;94995.19;5016279;28;99654;-48
2021/09/06 00:53:21;;;;;;;7.40;5.05;;;;;;;23.87;38.67;94999.50;4999259;28;99273;-49
2021/09/06 00:55:47;;;;;;;6.15;4.80;;;;;;;23.87;38.70;94998.75;5017271;28;96666;-47
2021/09/06 00:58:12;;;;;;;7.50;4.97;;;;;;;23.88;38.64;94997.53;5017317;28;96677;-49
2021/09/06 01:00:38;;;;;;;6.40;4.53;;;;;;;23.87;38.85;94999.50;4998047;28;99607;-47
2021/09/06 01:03:03;;;;;;;7.35;4.88;;;;;;;23.83;38.78;94994.03;5016392;28;99141;-50
2021/09/06 01:05:29;;;;;;;7.18;4.80;;;;;;;23.86;38.57;94997.94;5016478;28;97080;-51
2021/09/06 01:07:56;;;;;;;8.82;4.57;;;;;;;23.85;38.91;95012.94;5017102;28;96934;-47
2021/09/06 01:10:22;;;;;;;6.70;4.93;;;;;;;23.84;38.85;95006.63;5016595;28;99708;-53
2021/09/06 01:12:47;;;;;;;6.10;5.43;;;;;;;23.85;38.78;95007.41;5016512;28;99144;-46
2021/09/06 01:15:12;;;;;;;8.05;5.05;;;;;;;23.84;38.99;95005.88;5016867;28;97289;-54
2021/09/06 01:17:41;;;;;;;5.75;4.70;;;;;;;23.82;38.86;95009.03;5016974;28;97186;-48
2021/09/06 01:20:07;;;;;;;6.55;4.55;;;;;;;23.83;38.99;95020.84;5015461;28;98321;-47
2021/09/06 01:22:32;;;;;;;8.82;5.25;;;;;;;23.81;39.15;95001.94;5016281;28;99291;-48
2021/09/06 01:24:58;;;;;;;7.75;5.53;;;;;;;23.79;39.15;94998.06;5016232;28;96678;-50
2021/09/06 01:27:23;;;;;;;6.38;5.72;;;;;;;23.79;39.23;95007.09;5016624;28;96799;-47
2021/09/06 01:29:49;;;;;;;8.32;5.63;;;;;;;23.76;39.17;94998.88;5015928;28;99738;-46
2021/09/06 01:32:14;;;;;;;9.05;6.40;;;;;;;23.78;39.48;95002.00;5016027;28;99301;-48
2021/09/06 01:34:39;;;;;;;7.13;5.80;;;;;;;23.78;39.52;95004.75;5016475;28;96615;-49
2021/09/06 01:37:05;;;;;;;9.88;7.00;;;;;;;23.76;39.58;95004.38;5016593;28;96923;-46
2021/09/06 01:39:30;;;;;;;8.02;6.50;;;;;;;23.76;39.35;94999.63;5016032;28;99475;-47
2021/09/06 01:41:56;;;;;;;9.60;6.72;;;;;;;23.76;39.43;95009.91;5016438;28;99452;-46
2021/09/06 01:44:21;;;;;;;7.65;6.53;;;;;;;23.77;39.56;95005.97;5016522;28;97300;-49
2021/09/06 01:46:47;;;;;;;12.40;6.85;;;;;;;23.76;39.88;94987.84;5016332;28;97014;-52
2021/09/06 01:49:13;;;;;;;9.48;6.32;;;;;;;23.73;39.55;94989.44;5014610;28;107444;-48
2021/09/06 01:51:38;;;;;;;7.35;5.80;;;;;;;23.74;40.03;94981.97;5015655;28;99534;-53
2021/09/06 01:54:03;;;;;;;7.78;6.07;;;;;;;23.71;39.89;94977.25;5016496;28;97655;-53
2021/09/06 01:56:29;;;;;;;9.40;6.75;;;;;;;23.72;40.02;94987.09;5016203;28;96922;-58
2021/09/06 01:58:54;;;;;;;8.35;5.88;;;;;;;23.76;40.07;94982.31;5015811;28;99412;-57
2021/09/06 02:01:20;;;;;;;10.40;6.60;;;;;;;23.78;40.08;94979.94;5015579;28;98510;-55
2021/09/06 02:03:45;;;;;;;9.65;6.25;;;;;;;23.80;40.18;94989.34;5015203;28;96806;-53
2021/09/06 02:06:11;;;;;;;8.13;6.13;;;;;;;23.78;40.15;94988.22;5016356;28;96897;-54
2021/09/06 02:08:36;;;;;;;8.25;5.90;;;;;;;23.79;40.29;94978.75;5015334;28;99621;-54
2021/09/06 02:11:02;;;;;;;8.02;6.53;;;;;;;23.83;40.37;95007.06;5015417;28;102235;-55
2021/09/06 02:13:27;;;;;;;9.43;8.05;;;;;;;23.83;40.18;94999.56;5015652;28;97009;-51
2021/09/06 02:15:53;;;;;;;8.48;7.55;;;;;;;23.89;40.56;95005.38;5016022;28;96854;-52
2021/09/06 02:18:18;;;;;;;12.57;9.75;;;;;;;23.90;40.75;95014.47;5015402;28;99355;-52
2021/09/06 02:20:43;;;;;;;12.30;9.90;;;;;;;23.94;40.91;95015.97;5015525;28;100520;-55
2021/09/06 02:23:09;;;;;;;11.38;9.75;;;;;;;23.95;41.03;95006.50;5015269;28;96796;-57
2021/09/06 02:25:34;;;;;;;12.38;9.65;;;;;;;23.96;41.15;95018.34;5014206;28;96977;-55
2021/09/06 02:28:00;;;;;;;11.20;9.93;;;;;;;23.99;41.22;95006.50;5014983;28;100181;-55
2021/09/06 02:30:25;;;;;;;9.82;8.70;;;;;;;24.02;41.08;95010.41;5014829;27;99432;-55
2021/09/06 02:32:51;;;;;;;8.95;8.05;;;;;;;24.03;41.35;95006.44;5016183;28;97447;-51
2021/09/06 02:35:16;;;;;;;8.73;7.82;;;;;;;24.05;41.27;95001.28;5015947;28;96660;-53
2021/09/06 02:37:42;;;;;;;9.45;7.65;;;;;;;24.04;41.33;95002.50;5012624;28;99813;-55
2021/09/06 02:40:08;;;;;;;7.68;6.57;;;;;;;23.99;41.12;94995.47;5012817;28;99163;-56
2021/09/06 02:42:33;;;;;;;8.18;7.05;;;;;;;24.07;41.68;95002.47;5013226;28;96799;-54
2021/09/06 02:44:59;;;;;;;8.43;6.93;;;;;;;24.06;41.41;94997.34;5013660;28;96932;-54
2021/09/06 02:47:24;;;;;;;7.00;6.25;;;;;;;24.11;41.38;95002.41;5012997;28;99286;-52
2021/09/06 02:49:50;;;;;;;6.22;5.63;;;;;;;24.08;41.54;95008.75;5012665;28;99366;-53
2021/09/06 02:52:15;;;;;;;6.32;5.72;;;;;;;24.12;41.33;95010.28;5014286;28;96751;-52
2021/09/06 02:54:40;;;;;;;7.75;5.53;;;;;;;24.11;41.59;95013.44;5016084;28;96580;-54
2021/09/06 02:57:06;;;;;;;5.75;5.00;;;;;;;24.10;41.45;95009.13;5015074;28;99415;-53
2021/09/06 02:59:31;;;;;;;5.00;4.50;;;;;;;24.16;41.27;95009.44;5015291;28;99254;-50
2021/09/06 03:01:57;;;;;;;4.85;4.45;;;;;;;24.12;41.56;95009.50;5015171;28;96504;-53
2021/09/06 03:04:22;;;;;;;4.90;4.38;;;;;;;24.11;41.34;95010.69;5014847;28;96924;-56
2021/09/06 03:06:48;;;;;;;4.60;4.10;;;;;;;24.15;41.55;95014.19;5014693;28;99400;-54
2021/09/06 03:09:13;;;;;;;3.80;3.50;;;;;;;24.13;41.68;95011.84;5014937;28;104515;-53
2021/09/06 03:11:39;;;;;;;3.92;3.63;;;;;;;24.17;41.54;95011.78;5015420;28;96666;-52
2021/09/06 03:14:04;;;;;;;3.90;3.55;;;;;;;24.15;41.52;95014.19;5015367;28;96904;-53
2021/09/06 03:16:30;;;;;;;3.30;3.00;;;;;;;24.16;41.94;95014.94;5014911;28;99675;-52
2021/09/06 03:18:55;;;;;;;3.28;3.08;;;;;;;24.19;41.64;95014.91;5014905;28;98040;-52
2021/09/06 03:21:21;;;;;;;3.78;3.47;;;;;;;24.17;41.66;95019.28;5015076;28;96810;-54
2021/09/06 03:23:47;;;;;;;3.03;2.83;;;;;;;24.17;41.65;95017.31;5015172;28;96906;-52
2021/09/06 03:26:14;;;;;;;2.97;2.78;;;;;;;24.18;41.69;95013.34;5014281;28;99603;-57
2021/09/06 03:28:40;;;;;;;3.67;3.38;;;;;;;24.21;41.67;95023.56;5014494;28;99283;-55
2021/09/06 03:31:06;;;;;;;2.70;2.50;;;;;;;24.17;41.80;95011.78;5014968;28;96752;-52
2021/09/06 03:33:32;;;;;;;3.03;2.83;;;;;;;24.17;41.55;95020.06;5015048;28;97003;-51
2021/09/06 03:35:57;;;;;;;2.67;2.47;;;;;;;24.17;41.88;95028.34;5014781;28;98020;-50
2021/09/06 03:38:23;;;;;;;2.78;2.53;;;;;;;24.21;41.61;95029.09;5014508;28;99680;-54
2021/09/06 03:40:48;;;;;;;2.60;2.40;;;;;;;24.23;41.87;95037.72;5014998;28;96648;-58
2021/09/06 03:43:13;;;;;;;2.55;2.35;;;;;;;24.22;41.63;95030.66;5018418;28;96895;-54
2021/09/06 03:45:39;;;;;;;2.45;2.25;;;;;;;24.19;41.85;95037.00;5018038;28;99398;-51
2021/09/06 03:48:04;;;;;;;2.33;2.13;;;;;;;24.22;41.81;95041.69;5017589;28;99229;-52
2021/09/06 03:50:30;;;;;;;2.08;1.98;;;;;;;24.23;41.78;95031.41;5017846;28;96755;-50
2021/09/06 03:52:55;;;;;;;2.45;2.25;;;;;;;24.25;41.62;95051.91;5018141;28;96942;-53
2021/09/06 03:55:21;;;;;;;2.13;1.92;;;;;;;24.24;41.73;95049.53;5017837;28;98995;-53
2021/09/06 03:57:46;;;;;;;1.83;1.73;;;;;;;24.24;42.06;95055.84;5017865;28;99333;-54
2021/09/06 04:00:12;;;;;;;1.83;1.73;;;;;;;24.21;42.19;95056.69;5018443;28;97209;-49
2021/09/06 04:02:37;;;;;;;1.77;1.67;;;;;;;24.25;41.78;95057.41;5018372;28;96883;-52
2021/09/06 04:05:03;;;;;;;2.22;2.03;;;;;;;24.22;42.09;95063.75;5016829;28;99572;-56
2021/09/06 04:07:28;;;;;;;1.80;1.70;;;;;;;24.25;41.97;95060.19;5000072;28;99421;-55
2021/09/06 04:09:54;;;;;;;2.15;2.05;;;;;;;24.23;41.94;95051.53;5018000;28;96785;-53
2021/09/06 04:12:20;;;;;;;1.85;1.70;;;;;;;24.26;41.85;95053.47;5018025;28;96904;-52
2021/09/06 04:14:46;;;;;;;1.80;1.70;;;;;;;24.27;41.85;95057.78;5017109;28;99576;-56
2021/09/06 04:17:11;;;;;;;1.80;1.70;;;;;;;24.28;42.05;95061.31;5017464;28;99132;-52
2021/09/06 04:19:36;;;;;;;1.50;1.40;;;;;;;24.27;42.00;95060.56;5017903;28;96695;-58
2021/09/06 04:22:02;;;;;;;1.50;1.40;;;;;;;24.23;41.97;95070.84;5017983;28;96608;-56
2021/09/06 04:24:28;;;;;;;1.65;1.55;;;;;;;24.24;41.91;95060.56;5017300;28;100502;-53
2021/09/06 04:26:53;;;;;;;1.60;1.50;;;;;;;24.27;42.04;95066.06;5017818;28;99528;-52
2021/09/06 04:29:19;;;;;;;1.85;1.50;;;;;;;24.25;42.11;95068.47;5017581;28;96768;-53
2021/09/06 04:31:44;;;;;;;1.45;1.35;;;;;;;24.27;42.31;95074.34;5018255;28;96993;-54
2021/09/06 04:34:10;;;;;;;1.27;1.25;;;;;;;24.22;42.14;95074.81;5016931;28;107047;-54
2021/09/06 04:36:35;;;;;;;1.13;1.13;;;;;;;24.18;42.20;95079.59;5016937;28;106913;-53
2021/09/06 04:39:01;;;;;;;1.60;1.50;;;;;;;24.22;42.39;95085.03;5017280;28;96607;-52
2021/09/06 04:41:26;;;;;;;1.33;1.23;;;;;;;24.20;42.20;95077.19;5017801;28;97001;-53
2021/09/06 04:43:51;;;;;;;1.52;1.10;;;;;;;24.20;42.26;95081.91;5017233;28;100479;-50
2021/09/06 04:46:17;;;;;;;1.33;1.23;;;;;;;24.23;42.25;95075.56;5017034;28;98770;-48
2021/09/06 04:48:42;;;;;;;1.42;1.33;;;;;;;24.26;42.21;95086.59;5017307;28;96619;-52
2021/09/06 04:51:08;;;;;;;1.52;1.42;;;;;;;24.25;42.19;95084.22;5017440;28;96914;-52
2021/09/06 04:53:33;;;;;;;1.30;1.20;;;;;;;24.23;42.32;95084.66;5016447;28;99516;-57
2021/09/06 04:55:58;;;;;;;1.25;1.15;;;;;;;24.23;42.53;95084.66;5017041;28;104248;-50
2021/09/06 04:58:24;;;;;;;1.38;1.27;;;;;;;24.27;42.42;95088.16;5017219;28;96612;-54
2021/09/06 05:00:49;;;;;;;1.38;1.27;;;;;;;24.28;42.19;95089.72;5016951;28;96951;-57
2021/09/06 05:03:15;;;;;;;1.40;1.30;;;;;;;24.28;42.23;95100.75;5015971;28;99402;-52
2021/09/06 05:05:40;;;;;;;1.17;1.15;;;;;;;24.27;42.31;95093.66;5017142;28;99162;-53
2021/09/06 05:08:06;;;;;;;1.58;1.30;;;;;;;24.26;42.41;95088.53;5017338;28;96643;-53
2021/09/06 05:10:32;;;;;;;1.27;1.17;;;;;;;24.29;42.65;95096.00;5017535;28;96888;-53
2021/09/06 05:12:57;;;;;;;1.42;1.30;;;;;;;24.26;42.41;95094.06;5016612;28;98624;-49
2021/09/06 05:15:23;;;;;;;1.48;1.38;;;;;;;24.29;42.42;95096.00;5016636;28;99575;-51
2021/09/06 05:17:48;;;;;;;1.45;1.33;;;;;;;24.32;42.51;95105.44;5016908;28;96880;-54
2021/09/06 18:36:16;;;;;;;0.90;0.90;;;;;;;24.54;42.31;95260.59;4961506;28;96941;-51
2021/09/06 18:38:41;;;;;;;1.13;1.02;;;;;;;24.55;42.32;95262.91;5013228;28;96671;-51
2021/09/06 18:41:09;;;;;;;1.20;1.10;;;;;;;24.53;42.38;95259.78;5012953;28;99361;-52
2021/09/06 18:43:34;;;;;;;1.38;1.27;;;;;;;24.55;42.38;95273.97;5013138;28;99511;-49
2021/09/06 18:46:04;;;;;;;1.27;1.23;;;;;;;24.54;42.37;95261.34;5013354;28;96624;-50
2021/09/06 18:48:29;;;;;;;1.20;1.10;;;;;;;24.49;42.53;95270.09;5013102;28;96917;-49
2021/09/06 18:50:56;;;;;;;0.75;0.75;;;;;;;24.51;42.23;95262.19;4994415;28;100196;-55
2021/09/06 18:53:22;;;;;;;1.20;1.10;;;;;;;24.52;42.04;95269.25;5012408;28;100375;-54
2021/09/06 18:55:47;;;;;;;1.27;1.17;;;;;;;24.47;42.41;95264.19;5013299;28;97541;-54
2021/09/06 18:58:13;;;;;;;0.80;0.80;;;;;;;24.51;42.31;95272.44;4995019;28;96997;-51
2021/09/06 19:00:38;;;;;;;0.98;0.98;;;;;;;24.52;42.44;95271.25;5012649;28;98979;-53
2021/09/06 19:03:06;;;;;;;0.98;0.98;;;;;;;24.47;42.19;95266.94;5012491;28;99163;-53
2021/09/06 19:05:31;;;;;;;1.05;0.98;;;;;;;24.52;42.27;95268.50;5012940;28;96620;-51
2021/09/06 19:07:57;;;;;;;0.90;0.90;;;;;;;24.48;42.03;95265.75;5013365;28;96934;-50
2021/09/06 19:10:22;;;;;;;1.10;1.00;;;;;;;24.50;42.25;95260.59;5012440;28;99163;-49
2021/09/06 19:12:48;;;;;;;1.25;1.15;;;;;;;24.52;42.12;95272.03;5011103;28;99577;-49
2021/09/06 19:15:14;;;;;;;1.10;1.10;;;;;;;24.48;42.25;95265.75;5012847;28;97764;-49
2021/09/06 19:17:39;;;;;;;0.80;0.80;;;;;;;24.50;42.07;95265.34;5012367;28;96928;-55
2021/09/06 19:20:05;;;;;;;1.30;1.20;;;;;;;24.52;42.29;95269.25;5012205;28;99876;-54
2021/09/06 19:22:31;;;;;;;1.08;0.90;;;;;;;24.50;42.19;95257.06;5012111;28;99002;-50
2021/09/06 19:24:56;;;;;;;1.33;1.23;;;;;;;24.49;42.39;95270.09;5012172;28;96880;-54
2021/09/06 19:27:22;;;;;;;3.97;2.75;;;;;;;24.47;41.78;95272.47;5012266;28;96931;-50
2021/09/06 19:29:48;;;;;;;5.22;4.45;;;;;;;24.43;40.56;95277.28;5012013;28;99660;-53
2021/09/06 19:32:13;;;;;;;7.10;5.13;;;;;;;24.36;39.50;95269.81;5012073;28;99002;-55
2021/09/06 19:34:41;;;;;;;6.38;4.85;;;;;;;24.34;38.98;95268.69;5012245;28;97542;-48
2021/09/06 19:37:07;;;;;;;6.82;5.15;;;;;;;24.28;38.32;95277.41;4994065;28;97052;-54
2021/09/06 19:39:32;;;;;;;6.57;4.80;;;;;;;24.28;37.83;95277.41;5011246;28;99432;-49
2021/09/06 19:41:58;;;;;;;4.85;4.25;;;;;;;24.22;38.11;95273.50;5011651;28;99403;-52
2021/09/06 19:44:23;;;;;;;3.88;3.47;;;;;;;24.22;38.42;95278.22;5012234;28;96736;-51
2021/09/06 19:46:52;;;;;;;3.90;3.17;;;;;;;24.27;38.49;95281.34;5011986;28;96916;-51
2021/09/06 19:49:18;;;;;;;3.22;2.92;;;;;;;24.27;38.83;95281.34;5011757;28;99936;-51
2021/09/06 19:51:43;;;;;;;2.50;2.30;;;;;;;24.32;38.53;95282.09;5011832;28;99356;-48
2021/09/06 19:54:09;;;;;;;5.82;2.63;;;;;;;24.32;39.11;95287.63;5011777;28;96817;-46
2021/09/06 19:56:34;;;;;;;2.20;2.00;;;;;;;24.36;38.98;95288.38;5012305;28;96933;-53
2021/09/06 19:59:04;;;;;;;2.35;1.55;;;;;;;24.30;39.31;95285.25;5011817;28;100017;-54
2021/09/06 20:01:29;;;;;;;1.70;1.60;;;;;;;24.35;39.30;95292.34;5011663;28;99658;-51
2021/09/06 20:03:55;;;;;;;1.50;1.40;;;;;;;24.34;39.30;95285.25;4993679;28;96830;-54
2021/09/06 20:06:20;;;;;;;1.35;1.25;;;;;;;24.38;39.23;95289.53;5011781;28;96966;-51
2021/09/06 20:08:46;;;;;;;1.05;1.00;;;;;;;24.41;39.58;95280.44;5011208;28;99527;-50
2021/09/06 20:11:11;;;;;;;0.80;0.80;;;;;;;24.39;39.52;95293.09;5011611;28;97798;-51
2021/09/06 20:13:37;;;;;;;0.60;0.60;;;;;;;24.41;39.46;95293.47;5011810;28;96857;-54
2021/09/06 20:16:02;;;;;;;0.60;0.60;;;;;;;24.40;39.76;95284.38;5011928;28;97022;-54
2021/09/06 20:18:28;;;;;;;0.57;0.57;;;;;;;24.43;39.85;95282.78;5011390;28;99714;-54
2021/09/06 20:20:53;;;;;;;0.60;0.60;;;;;;;24.40;39.83;95284.38;5011675;28;99270;-55
2021/09/06 20:23:18;;;;;;;0.65;0.65;;;;;;;24.38;39.77;95294.28;5011720;28;96656;-56
2021/09/06 20:25:44;;;;;;;0.40;0.40;;;;;;;24.42;39.81;95286.75;5013621;28;97210;-53
2021/09/06 20:28:09;;;;;;;0.35;0.35;;;;;;;24.43;39.98;95299.34;4996368;28;99589;-55
2021/09/06 20:30:35;;;;;;;0.40;0.40;;;;;;;24.43;39.88;95288.31;5014642;28;99301;-54
2021/09/06 20:33:00;;;;;;;0.30;0.30;;;;;;;24.44;40.01;95278.81;5015047;28;96568;-53
2021/09/06 20:35:26;;;;;;;0.25;0.25;;;;;;;24.47;39.96;95275.22;5014698;28;97062;-53
2021/09/06 20:37:52;;;;;;;0.50;0.50;;;;;;;24.44;39.93;95281.56;5014673;28;98224;-54
2021/09/06 20:40:19;;;;;;;0.40;0.40;;;;;;;24.44;39.86;95278.81;5014302;28;99052;-54
2021/09/06 20:42:44;;;;;;;0.43;0.43;;;;;;;24.41;40.02;95279.66;5014918;28;97228;-49
2021/09/06 20:45:10;;;;;;;0.40;0.40;;;;;;;24.43;39.85;95278.03;5015313;28;96931;-51
2021/09/06 20:47:35;;;;;;;0.40;0.40;;;;;;;24.44;40.04;95278.81;5014633;28;99514;-55
2021/09/06 20:50:01;;;;;;;0.50;0.50;;;;;;;24.41;39.94;95285.94;5014458;28;99152;-54
2021/09/06 20:52:27;;;;;;;0.50;0.50;;;;;;;24.43;40.19;95277.28;5014137;28;96782;-51
2021/09/06 20:54:55;;;;;;;0.50;0.50;;;;;;;24.43;39.92;95282.78;5014160;28;96985;-50
2021/09/06 20:57:20;;;;;;;0.60;0.60;;;;;;;24.41;40.01;95282.41;5014433;28;100070;-56
2021/09/06 20:59:46;;;;;;;0.60;0.60;;;;;;;24.41;40.02;95285.94;5014138;28;99264;-54
2021/09/06 21:02:11;;;;;;;1.00;0.60;;;;;;;24.40;40.09;95291.88;5014606;28;96660;-55
2021/09/06 21:04:36;;;;;;;0.60;0.60;;;;;;;24.42;40.06;95297.78;5014813;28;96891;-51
2021/09/06 21:07:02;;;;;;;0.80;0.80;;;;;;;24.42;40.20;95283.97;5014438;28;97394;-57
2021/09/06 21:09:27;;;;;;;0.43;0.43;;;;;;;24.41;40.33;95285.19;5014154;28;99931;-51
2021/09/06 21:11:53;;;;;;;0.60;0.60;;;;;;;24.39;40.37;95291.09;5014408;28;96888;-53
2021/09/06 21:14:18;;;;;;;0.68;0.63;;;;;;;24.42;40.05;95292.25;5012094;28;97034;-49
2021/09/06 21:16:44;;;;;;;0.52;0.52;;;;;;;24.41;40.03;95285.19;5011912;28;100153;-50
2021/09/06 21:19:09;;;;;;;0.50;0.50;;;;;;;24.42;40.13;95297.78;5011851;28;99568;-56
2021/09/06 21:21:38;;;;;;;0.50;0.50;;;;;;;24.42;40.27;95303.31;4996185;28;96815;-54
2021/09/06 21:24:04;;;;;;;0.50;0.50;;;;;;;24.41;40.13;95301.75;5013832;28;97112;-56
2021/09/06 21:26:30;;;;;;;0.60;0.57;;;;;;;24.40;40.15;95300.16;5013737;28;100013;-55
2021/09/06 21:28:55;;;;;;;0.60;0.60;;;;;;;24.39;40.33;95293.09;5013511;28;99460;-49
2021/09/06 21:31:24;;;;;;;0.70;0.70;;;;;;;24.38;40.42;95299.78;5014182;28;96675;-51
2021/09/06 21:33:50;;;;;;;0.52;0.52;;;;;;;24.38;40.32;95305.31;5014296;28;97015;-54
2021/09/06 21:36:16;;;;;;;0.60;0.60;;;;;;;24.37;40.24;95301.75;5013115;28;99621;-55
2021/09/06 21:38:41;;;;;;;0.47;0.47;;;;;;;24.38;40.15;95297.81;5013246;28;99301;-54
2021/09/06 21:41:07;;;;;;;0.63;0.52;;;;;;;24.36;40.48;95302.19;5013676;28;96867;-55
2021/09/06 21:43:32;;;;;;;0.45;0.45;;;;;;;24.37;40.38;95306.50;5013759;28;96949;-56
2021/09/06 21:45:58;;;;;;;0.47;0.47;;;;;;;24.37;40.25;95306.50;5013349;28;99434;-50
2021/09/06 21:48:23;;;;;;;0.60;0.60;;;;;;;24.37;39.89;95306.50;5013545;28;98927;-55
2021/09/06 21:50:52;;;;;;;0.57;0.57;;;;;;;24.34;40.47;95315.59;5013942;28;96665;-53
2021/09/06 21:53:17;;;;;;;0.50;0.50;;;;;;;24.38;40.37;95308.06;5013352;28;96931;-53
2021/09/06 21:55:43;;;;;;;0.63;0.63;;;;;;;24.37;40.58;95309.28;5013745;28;98005;-55
2021/09/06 21:58:08;;;;;;;0.82;0.60;;;;;;;24.35;40.57;95314.41;5013725;28;99429;-53
2021/09/06 22:00:34;;;;;;;0.70;0.70;;;;;;;24.37;40.23;95312.03;5013924;28;96768;-56
2021/09/06 22:02:59;;;;;;;0.47;0.47;;;;;;;24.39;40.48;95306.88;5013708;28;96867;-58
2021/09/06 22:05:25;;;;;;;0.60;0.60;;;;;;;24.40;40.28;95302.94;5012559;28;100505;-53
2021/09/06 22:07:50;;;;;;;0.60;0.60;;;;;;;24.39;40.43;95306.88;5012527;28;102074;-54
2021/09/06 22:10:15;;;;;;;0.70;0.70;;;;;;;24.40;40.20;95311.22;4995383;28;96622;-55
2021/09/06 22:12:41;;;;;;;0.55;0.55;;;;;;;24.38;40.14;95308.84;5013701;28;96890;-53
2021/09/06 22:15:07;;;;;;;0.60;0.60;;;;;;;24.39;40.37;95315.16;5013205;28;99812;-53
2021/09/06 22:17:32;;;;;;;0.57;0.57;;;;;;;24.38;40.56;95303.31;5013070;28;98926;-53
2021/09/06 22:19:58;;;;;;;0.60;0.60;;;;;;;24.38;40.44;95303.31;5013400;28;96733;-56
2021/09/06 22:22:24;;;;;;;0.65;0.65;;;;;;;24.35;40.54;95297.84;5013429;28;96935;-56
2021/09/06 22:24:50;;;;;;;0.60;0.60;;;;;;;24.32;40.18;95298.66;5012772;28;99618;-55
2021/09/06 22:27:15;;;;;;;0.60;0.60;;;;;;;24.38;40.53;95305.31;5013072;28;98721;-53
2021/09/06 22:29:41;;;;;;;0.50;0.50;;;;;;;24.38;40.36;95302.56;5013255;28;97642;-49
2021/09/06 22:32:06;;;;;;;0.65;0.65;;;;;;;24.38;40.24;95299.78;5012781;28;96933;-50
2021/09/06 22:34:32;;;;;;;0.50;0.50;;;;;;;24.38;40.35;95297.03;5012866;28;99582;-53
2021/09/06 22:36:57;;;;;;;0.57;0.57;;;;;;;24.32;40.32;95304.19;5011837;28;99609;-53
2021/09/06 22:39:23;;;;;;;0.63;0.63;;;;;;;24.35;40.46;95308.91;5013037;28;96988;-57
2021/09/06 22:41:48;;;;;;;0.60;0.60;;;;;;;24.37;40.47;95301.00;5013139;28;96882;-52
2021/09/06 22:44:13;;;;;;;0.50;0.50;;;;;;;24.37;40.24;95301.00;5012614;28;104093;-50
2021/09/06 22:46:39;;;;;;;0.50;0.50;;;;;;;24.34;40.28;95319.13;5012756;28;98935;-48
2021/09/06 22:49:04;;;;;;;0.50;0.40;;;;;;;24.36;40.42;95318.75;5012150;28;96810;-54
2021/09/06 22:51:30;;;;;;;0.30;0.30;;;;;;;24.38;40.52;95332.94;5012909;28;96932;-52
2021/09/06 22:53:55;;;;;;;0.45;0.45;;;;;;;24.37;40.49;95317.56;5011955;28;100028;-52
2021/09/06 22:56:21;;;;;;;0.50;0.50;;;;;;;24.36;40.57;95310.47;5012411;28;99364;-48
2021/09/06 22:58:47;;;;;;;0.50;0.50;;;;;;;24.35;40.60;95312.44;5013000;28;96804;-52
2021/09/06 23:01:12;;;;;;;0.57;0.57;;;;;;;24.37;40.43;95312.03;5012909;28;96931;-50
2021/09/06 23:03:38;;;;;;;0.40;0.40;;;;;;;24.35;40.66;95303.38;5012106;28;99653;-51
2021/09/06 23:06:03;;;;;;;0.40;0.40;;;;;;;24.39;40.59;95309.66;5012076;28;98887;-52
2021/09/06 23:08:32;;;;;;;0.43;0.43;;;;;;;24.37;40.59;95301.00;5012476;28;96828;-49
2021/09/06 23:10:57;;;;;;;0.50;0.50;;;;;;;24.36;40.42;95310.47;5013097;28;96884;-50
2021/09/06 23:13:23;;;;;;;0.43;0.43;;;;;;;24.34;40.61;95302.56;5012486;28;97693;-48
2021/09/06 23:15:48;;;;;;;0.45;0.40;;;;;;;24.37;40.42;95310.03;5012432;28;99036;-48
2021/09/06 23:18:13;;;;;;;0.50;0.50;;;;;;;24.37;40.72;95309.28;5014168;28;96789;-49
2021/09/06 23:20:39;;;;;;;0.47;0.47;;;;;;;24.38;40.46;95319.13;5025226;28;97891;-50
2021/09/06 23:23:04;;;;;;;0.50;0.50;;;;;;;24.37;40.63;95306.50;5031976;28;104829;-53
2021/09/06 23:25:34;;;;;;;0.40;0.40;;;;;;;24.37;40.43;95301.00;5032196;28;99926;-50
2021/09/06 23:28:01;;;;;;;0.57;0.57;;;;;;;24.37;40.66;95306.50;5032561;28;97592;-54
2021/09/06 23:30:26;;;;;;;0.60;0.60;;;;;;;24.32;40.52;95284.88;5032221;28;96902;-47
2021/09/06 23:32:52;;;;;;;0.52;0.52;;;;;;;24.35;40.43;95298.63;5031869;28;100047;-54
2021/09/06 23:35:17;;;;;;;0.30;0.30;;;;;;;24.34;40.56;95307.31;5031743;28;101192;-53
2021/09/06 23:37:43;;;;;;;0.73;0.40;;;;;;;24.35;40.43;95303.38;5032426;28;96724;-49
2021/09/06 23:40:08;;;;;;;0.50;0.50;;;;;;;24.31;40.89;95302.63;5032038;28;96943;-57
2021/09/06 23:42:34;;;;;;;0.40;0.40;;;;;;;24.34;40.70;95315.59;5031573;28;98770;-52
2021/09/06 23:44:59;;;;;;;0.43;0.43;;;;;;;24.33;40.84;95305.75;5031592;28;108842;-53
2021/09/06 23:47:25;;;;;;;0.40;0.40;;;;;;;24.32;40.81;95304.19;5032288;28;96796;-52
2021/09/06 23:49:50;;;;;;;0.60;0.60;;;;;;;24.32;40.77;95310.47;5031901;28;96931;-51
2021/09/06 23:52:15;;;;;;;0.40;0.40;;;;;;;24.30;40.67;95306.56;5031834;28;99705;-47
2021/09/06 23:54:41;;;;;;;0.50;0.50;;;;;;;24.33;40.59;95316.81;5031935;28;99187;-47
2021/09/06 23:57:06;;;;;;;0.38;0.38;;;;;;;24.34;40.60;95315.59;5032196;28;96903;-52
2021/09/06 23:59:32;;;;;;;0.50;0.40;;;;;;;24.34;40.68;95307.31;5034493;27;96911;-49
